< < Back
Terminal Aerodrome Forecast


Current Version              Previous Versions:   1  2  3  4  5  6  7  8  9  

Terminal Aerodrome Forecast

016
FTUS42 KTAE 031120
TAFABY
TAF
KABY 031120Z 0312/0412 VRB03KT P6SM BKN005 OVC014
     FM031500 36007KT P6SM SCT040=

Latest METAR

688
SAUS70 KWBC 040056
MTRABY
METAR KABY 040053Z AUTO 00000KT 9SM CLR 28/24 A2989 RMK AO2 SLP118
T02830239


USA.gov is the U.S. government's official web portal to all federal, state and local government web resources and services.